Time;durP1;ratioP1;P1;durP2;ratioP2;P2;SDS_P1;SDS_P2;PMS_P1;PMS_P2;Temp;Humidity;BMP_temperature;BMP_pressure;BME280_temperature;BME280_humidity;BME280_pressure;Samples;Min_cycle;Max_cycle;Signal;HPM_P1;HPM_P2
2021/08/02 00:02:27;;;;;;;5.10;2.30;;;15.80;99.90;;;;;;5002719;28;20694;-72
2021/08/02 00:05:04;;;;;;;3.63;2.58;;;15.90;99.90;;;;;;5007986;28;20251;-72
2021/08/02 00:07:34;;;;;;;3.30;2.28;;;16.00;99.90;;;;;;5008320;28;20236;-72
2021/08/02 00:10:09;;;;;;;3.20;2.50;;;15.90;99.90;;;;;;5009463;28;20207;-72
2021/08/02 00:12:41;;;;;;;2.87;2.50;;;15.70;99.90;;;;;;5011199;28;20599;-72
2021/08/02 00:15:10;;;;;;;3.73;2.43;;;15.60;99.90;;;;;;5010805;28;20208;-72
2021/08/02 00:17:40;;;;;;;3.73;2.30;;;15.50;99.90;;;;;;5009339;28;20204;-72
2021/08/02 00:20:10;;;;;;;2.40;2.17;;;15.50;99.90;;;;;;5009452;28;20204;-72
2021/08/02 00:22:37;;;;;;;4.83;2.47;;;15.40;99.90;;;;;;5010028;28;20546;-72
2021/08/02 00:25:08;;;;;;;4.40;2.50;;;15.30;99.90;;;;;;5007357;28;20291;-71
2021/08/02 00:27:35;;;;;;;6.37;2.60;;;15.30;99.90;;;;;;5007782;28;20223;-72
2021/08/02 00:30:02;;;;;;;4.07;2.50;;;15.30;99.90;;;;;;5009959;28;20211;-72
2021/08/02 00:32:29;;;;;;;2.77;2.57;;;15.30;99.90;;;;;;5007177;28;20577;-72
2021/08/02 00:34:56;;;;;;;5.23;2.60;;;15.40;99.90;;;;;;5009375;28;20204;-72
2021/08/02 00:37:32;;;;;;;3.93;2.40;;;15.40;99.90;;;;;;5010351;28;20207;-72
2021/08/02 00:40:10;;;;;;;2.90;2.20;;;15.40;99.90;;;;;;5007170;28;20208;-69
2021/08/02 00:43:12;;;;;;;6.15;2.63;;;15.30;99.90;;;;;;5008662;28;20204;-70
2021/08/02 00:45:40;;;;;;;3.37;2.40;;;15.10;99.90;;;;;;5005113;28;20226;-70
2021/08/02 00:48:08;;;;;;;3.30;2.10;;;15.10;99.90;;;;;;5010619;28;20203;-69
2021/08/02 00:50:39;;;;;;;5.00;2.47;;;15.00;99.90;;;;;;5329520;22;20602;-75
2021/08/02 00:53:08;;;;;;;3.93;2.67;;;14.90;99.90;;;;;;5012372;28;20200;-75
2021/08/02 00:55:38;;;;;;;3.40;2.33;;;14.90;99.90;;;;;;5011727;28;20219;-75
2021/08/02 00:58:09;;;;;;;2.77;2.57;;;14.80;99.90;;;;;;5011773;28;20212;-75
2021/08/02 01:00:36;;;;;;;2.57;2.23;;;14.70;99.90;;;;;;5010741;28;20218;-75
2021/08/02 01:03:06;;;;;;;5.17;2.57;;;14.70;99.90;;;;;;5011422;28;20214;-75
2021/08/02 01:05:36;;;;;;;3.40;2.30;;;14.70;99.90;;;;;;5010566;28;20204;-75
2021/08/02 01:08:08;;;;;;;3.83;2.43;;;14.70;99.90;;;;;;5011667;28;20258;-74
2021/08/02 01:10:36;;;;;;;3.90;2.57;;;14.70;99.90;;;;;;5013913;28;20203;-75
2021/08/02 01:13:07;;;;;;;3.73;2.97;;;14.70;99.90;;;;;;5012786;28;20567;-75
2021/08/02 01:15:36;;;;;;;2.67;2.43;;;14.60;99.90;;;;;;5011444;28;20566;-75
2021/08/02 01:18:03;;;;;;;4.20;2.53;;;14.60;99.90;;;;;;5012055;28;20594;-75
2021/08/02 01:20:32;;;;;;;5.63;2.80;;;14.60;99.90;;;;;;5010519;28;20232;-75
2021/08/02 01:23:04;;;;;;;3.43;2.80;;;14.60;99.90;;;;;;5011394;28;20267;-75
2021/08/02 01:26:10;;;;;;;3.30;3.00;;;14.60;99.90;;;;;;5010025;28;20662;-75
2021/08/02 01:29:14;;;;;;;4.60;2.97;;;14.60;99.90;;;;;;5010686;28;20204;-75
2021/08/02 01:31:41;;;;;;;4.27;3.10;;;14.50;99.90;;;;;;5002793;28;20196;-75
2021/08/02 01:34:08;;;;;;;4.10;3.20;;;14.60;99.90;;;;;;5009139;28;20258;-75
2021/08/02 01:36:35;;;;;;;6.33;2.97;;;14.50;99.90;;;;;;5008835;28;20422;-70
2021/08/02 01:39:03;;;;;;;4.07;2.83;;;14.40;99.90;;;;;;5008866;28;21675;-70
2021/08/02 01:41:30;;;;;;;7.33;3.07;;;14.30;99.90;;;;;;5009235;28;20212;-70
2021/08/02 01:43:58;;;;;;;3.57;3.20;;;14.30;99.90;;;;;;4996667;28;20232;-70
2021/08/02 01:46:34;;;;;;;6.17;3.07;;;14.30;99.90;;;;;;4996079;28;20220;-70
2021/08/02 01:49:10;;;;;;;6.30;2.90;;;14.20;99.90;;;;;;5004412;28;20209;-70
2021/08/02 01:51:40;;;;;;;4.57;2.90;;;14.10;99.90;;;;;;5008032;28;20254;-70
2021/08/02 01:54:20;;;;;;;3.20;2.90;;;14.10;99.90;;;;;;5006538;28;20677;-70
2021/08/02 01:56:53;;;;;;;6.13;3.70;;;14.10;99.90;;;;;;5006576;28;20720;-70
2021/08/02 01:59:23;;;;;;;4.63;3.23;;;14.00;99.90;;;;;;5005471;28;20208;-70
2021/08/02 02:01:54;;;;;;;3.87;3.10;;;14.10;99.90;;;;;;5008580;28;20739;-70
2021/08/02 02:04:26;;;;;;;4.17;3.17;;;14.10;99.90;;;;;;5001856;28;20294;-70
2021/08/02 02:06:56;;;;;;;3.73;3.10;;;14.10;99.90;;;;;;4994182;28;20221;-70
2021/08/02 02:09:26;;;;;;;5.60;3.40;;;14.10;99.90;;;;;;5006238;28;20871;-74
2021/08/02 02:11:56;;;;;;;6.20;3.23;;;14.10;99.90;;;;;;5004334;28;20774;-74
2021/08/02 02:14:26;;;;;;;5.90;3.10;;;14.00;99.90;;;;;;5006103;28;20201;-75
2021/08/02 02:16:57;;;;;;;3.77;2.97;;;14.00;99.90;;;;;;5006012;28;20680;-75
2021/08/02 02:19:26;;;;;;;4.33;3.43;;;14.00;99.90;;;;;;5004002;28;20192;-75
2021/08/02 02:21:54;;;;;;;3.90;3.50;;;14.00;99.90;;;;;;5001973;28;20611;-75
2021/08/02 02:24:21;;;;;;;6.50;3.57;;;14.00;99.90;;;;;;4996278;28;20196;-74
2021/08/02 02:26:50;;;;;;;5.57;3.13;;;13.90;99.90;;;;;;5001689;28;20231;-75
2021/08/02 02:29:19;;;;;;;7.47;3.80;;;14.00;99.90;;;;;;5008845;28;20205;-75
2021/08/02 02:31:49;;;;;;;5.87;3.60;;;13.90;99.90;;;;;;5006549;28;20204;-75
2021/08/02 02:34:18;;;;;;;4.43;3.53;;;13.90;99.90;;;;;;5010218;28;20235;-75
2021/08/02 02:36:46;;;;;;;6.00;3.80;;;13.80;99.90;;;;;;5012241;28;20266;-75
2021/08/02 02:39:14;;;;;;;6.23;3.80;;;13.80;99.90;;;;;;4995160;28;20626;-75
2021/08/02 02:41:42;;;;;;;7.37;3.80;;;13.90;99.90;;;;;;4994814;28;20259;-75
2021/08/02 02:44:11;;;;;;;5.70;4.07;;;13.90;99.90;;;;;;5004040;28;20619;-75
2021/08/02 02:46:38;;;;;;;6.67;3.60;;;13.80;99.90;;;;;;5008713;28;20275;-75
2021/08/02 02:49:06;;;;;;;6.67;4.00;;;13.70;99.90;;;;;;5010498;28;20266;-75
2021/08/02 02:51:33;;;;;;;5.30;3.60;;;13.80;99.90;;;;;;5010965;28;20544;-75
2021/08/02 02:54:02;;;;;;;6.47;3.93;;;13.90;99.90;;;;;;5011583;28;20196;-75
2021/08/02 02:56:31;;;;;;;5.33;4.37;;;13.80;99.90;;;;;;5002224;28;20262;-75
2021/08/02 02:58:58;;;;;;;6.20;3.87;;;13.80;99.90;;;;;;5011221;28;20263;-75
2021/08/02 03:01:32;;;;;;;7.47;4.03;;;13.70;99.90;;;;;;5009218;28;20235;-75
2021/08/02 03:04:01;;;;;;;5.03;4.33;;;13.70;99.90;;;;;;5010503;28;20208;-75
2021/08/02 03:06:29;;;;;;;7.67;4.30;;;13.70;99.90;;;;;;5010141;28;20859;-75
2021/08/02 03:08:57;;;;;;;6.07;4.30;;;13.70;99.90;;;;;;5011051;28;20204;-75
2021/08/02 03:11:25;;;;;;;5.27;4.37;;;13.70;99.90;;;;;;5012989;28;20643;-75
2021/08/02 03:13:53;;;;;;;6.63;4.37;;;13.60;99.90;;;;;;5010405;28;20271;-75
2021/08/02 03:16:21;;;;;;;9.37;4.80;;;13.70;99.90;;;;;;5013343;28;20258;-75
2021/08/02 03:18:49;;;;;;;6.20;4.80;;;13.60;99.90;;;;;;5012840;28;20266;-75
2021/08/02 03:21:18;;;;;;;5.53;4.33;;;13.60;99.90;;;;;;5012382;28;20267;-75
2021/08/02 03:23:53;;;;;;;9.10;5.20;;;13.50;99.90;;;;;;5013238;28;20228;-75
2021/08/02 03:26:27;;;;;;;9.70;4.97;;;13.50;99.90;;;;;;5011739;28;20830;-75
2021/08/02 03:28:59;;;;;;;10.47;5.07;;;13.50;99.90;;;;;;5010382;28;20200;-75
2021/08/02 03:31:31;;;;;;;10.37;5.37;;;13.50;99.90;;;;;;5009197;28;20559;-75
2021/08/02 03:34:01;;;;;;;9.13;5.30;;;13.40;99.90;;;;;;5013322;28;20254;-75
2021/08/02 03:36:30;;;;;;;7.80;4.73;;;13.40;99.90;;;;;;5003525;28;20192;-71
2021/08/02 03:38:58;;;;;;;9.80;5.13;;;13.40;99.90;;;;;;5013364;28;20197;-71
2021/08/02 03:41:26;;;;;;;11.73;5.10;;;13.40;99.90;;;;;;5012129;28;20200;-71
2021/08/02 03:43:53;;;;;;;9.43;5.93;;;13.40;99.90;;;;;;5013152;28;20200;-71
2021/08/02 03:46:22;;;;;;;12.03;5.27;;;13.30;99.90;;;;;;5012532;28;20208;-71
2021/08/02 03:48:49;;;;;;;8.57;4.73;;;13.30;99.90;;;;;;5013167;28;20208;-71
2021/08/02 03:51:17;;;;;;;6.23;4.00;;;13.30;99.90;;;;;;5010670;28;20208;-71
2021/08/02 03:53:48;;;;;;;11.03;4.53;;;13.30;99.90;;;;;;5012211;28;20208;-70
2021/08/02 03:56:17;;;;;;;5.87;4.10;;;13.30;99.90;;;;;;5013805;28;20227;-71
2021/08/02 03:58:45;;;;;;;5.70;3.77;;;13.30;99.90;;;;;;5012521;28;20650;-71
2021/08/02 04:01:12;;;;;;;6.53;3.90;;;13.20;99.90;;;;;;5006002;28;20193;-71
2021/08/02 04:03:41;;;;;;;7.60;4.27;;;13.30;99.90;;;;;;5010103;28;20243;-73
2021/08/02 04:06:09;;;;;;;8.57;3.60;;;13.70;99.90;;;;;;5007491;28;20222;-70
2021/08/02 04:08:38;;;;;;;5.27;3.50;;;14.00;99.90;;;;;;5010401;28;20224;-70
2021/08/02 04:11:05;;;;;;;6.73;3.40;;;13.70;99.90;;;;;;5008297;28;20201;-74
2021/08/02 04:13:32;;;;;;;7.73;3.37;;;13.60;99.90;;;;;;5008183;28;20205;-71
2021/08/02 04:15:59;;;;;;;5.53;3.27;;;14.00;99.90;;;;;;5009890;28;20266;-75
2021/08/02 04:18:26;;;;;;;3.70;2.93;;;14.10;99.90;;;;;;5009446;28;20587;-74
2021/08/02 04:20:55;;;;;;;6.47;2.70;;;13.50;99.90;;;;;;5003185;28;20203;-74
2021/08/02 04:23:23;;;;;;;6.30;3.77;;;13.30;99.90;;;;;;5009679;28;20200;-74
2021/08/02 04:25:51;;;;;;;8.00;3.20;;;13.30;99.90;;;;;;5001491;28;20698;-71
2021/08/02 04:28:19;;;;;;;5.13;3.37;;;13.40;99.90;;;;;;5012917;28;20231;-71
2021/08/02 04:30:46;;;;;;;5.80;3.10;;;13.30;99.90;;;;;;5010822;28;20200;-71
2021/08/02 04:33:13;;;;;;;7.50;3.90;;;13.30;99.90;;;;;;5011841;28;20204;-74
2021/08/02 04:35:41;;;;;;;5.17;3.60;;;13.50;99.90;;;;;;5012658;28;20784;-70
2021/08/02 04:38:09;;;;;;;5.17;3.67;;;13.50;99.90;;;;;;5010169;28;20241;-70
2021/08/02 04:40:35;;;;;;;5.20;3.50;;;13.40;99.90;;;;;;5001784;28;20560;-71
2021/08/02 04:43:04;;;;;;;4.23;3.67;;;13.50;99.90;;;;;;5012203;28;20654;-71
2021/08/02 04:45:31;;;;;;;12.97;4.07;;;13.80;99.90;;;;;;5011025;28;20203;-71
2021/08/02 04:47:58;;;;;;;8.60;4.40;;;13.70;99.90;;;;;;5011094;28;20620;-70
2021/08/02 04:50:25;;;;;;;8.20;4.23;;;13.70;99.90;;;;;;5012061;28;20212;-71
2021/08/02 04:52:52;;;;;;;7.93;4.70;;;13.70;99.90;;;;;;5011791;28;20204;-71
2021/08/02 04:55:19;;;;;;;10.27;6.33;;;13.80;99.90;;;;;;5012565;28;20562;-70
2021/08/02 04:57:46;;;;;;;9.27;5.50;;;13.90;99.90;;;;;;5011475;28;20650;-70
2021/08/02 05:00:15;;;;;;;10.90;4.97;;;13.80;99.90;;;;;;5012133;28;20204;-71
2021/08/02 05:02:42;;;;;;;6.37;4.90;;;13.90;99.90;;;;;;5007113;28;20650;-71
2021/08/02 05:05:10;;;;;;;7.63;4.80;;;14.00;99.90;;;;;;5011352;28;20207;-71
2021/08/02 05:07:36;;;;;;;7.97;4.90;;;14.00;99.90;;;;;;5012623;28;20698;-71
2021/08/02 05:10:04;;;;;;;8.60;5.10;;;14.00;99.90;;;;;;5011352;28;20196;-71
2021/08/02 05:12:31;;;;;;;8.03;5.00;;;14.10;99.90;;;;;;5012319;28;20576;-71
2021/08/02 05:15:04;;;;;;;8.13;4.67;;;14.20;99.90;;;;;;5011730;28;20200;-71
2021/08/02 05:17:32;;;;;;;6.43;4.70;;;14.30;99.90;;;;;;5012279;28;20204;-70
2021/08/02 05:19:59;;;;;;;9.03;4.53;;;14.20;99.90;;;;;;5011082;28;20200;-71
2021/08/02 05:22:25;;;;;;;6.70;4.37;;;14.20;99.90;;;;;;5011979;28;20279;-70
2021/08/02 05:24:52;;;;;;;5.17;4.07;;;14.20;99.90;;;;;;5011898;28;20210;-71
2021/08/02 05:27:19;;;;;;;10.00;4.30;;;14.20;99.90;;;;;;5011407;28;20216;-71
2021/08/02 05:29:46;;;;;;;5.67;4.07;;;14.30;99.90;;;;;;5010840;28;20200;-71
2021/08/02 05:32:13;;;;;;;5.33;3.93;;;14.30;99.90;;;;;;5010306;28;20196;-71
2021/08/02 05:34:41;;;;;;;7.47;3.90;;;14.40;99.90;;;;;;5006483;28;20215;-71
2021/08/02 05:37:08;;;;;;;5.10;4.00;;;14.40;99.90;;;;;;5011264;28;20200;-71
2021/08/02 05:39:35;;;;;;;5.77;4.00;;;14.40;99.90;;;;;;5012576;28;20204;-71
2021/08/02 05:42:02;;;;;;;8.67;4.20;;;14.50;99.90;;;;;;5011744;28;20570;-71
2021/08/02 05:44:29;;;;;;;5.73;3.97;;;14.50;99.90;;;;;;5011073;28;20200;-71
2021/08/02 05:46:56;;;;;;;7.40;3.87;;;14.50;99.90;;;;;;5011990;28;20577;-71
2021/08/02 05:49:23;;;;;;;5.73;3.97;;;14.50;99.90;;;;;;5010596;28;20201;-71
2021/08/02 05:51:53;;;;;;;5.90;3.60;;;14.70;99.90;;;;;;5009811;28;20208;-71
2021/08/02 05:54:20;;;;;;;7.50;3.60;;;14.70;99.90;;;;;;5010034;28;20226;-71
2021/08/02 05:56:47;;;;;;;4.77;3.23;;;14.70;99.90;;;;;;5011140;28;20210;-71
2021/08/02 05:59:14;;;;;;;6.87;3.47;;;14.70;99.90;;;;;;5011437;28;20579;-71
2021/08/02 06:01:41;;;;;;;7.60;3.30;;;14.80;99.90;;;;;;5011153;28;20210;-71
2021/08/02 06:04:07;;;;;;;5.70;3.40;;;14.80;99.90;;;;;;5011291;28;20214;-71
2021/08/02 06:06:34;;;;;;;3.73;3.27;;;14.80;99.90;;;;;;5009490;28;20673;-71
2021/08/02 06:09:03;;;;;;;4.50;2.80;;;14.90;99.90;;;;;;5010393;28;20216;-70
2021/08/02 06:11:29;;;;;;;6.10;3.53;;;14.90;99.90;;;;;;5009488;28;20219;-71
2021/08/02 06:13:56;;;;;;;3.70;2.90;;;15.00;99.90;;;;;;5010418;28;20207;-71
2021/08/02 06:16:23;;;;;;;5.60;3.20;;;15.30;99.90;;;;;;5005396;28;20204;-71
2021/08/02 06:18:50;;;;;;;5.63;3.13;;;15.00;99.90;;;;;;5010203;28;20197;-71
2021/08/02 06:21:17;;;;;;;5.40;2.40;;;15.30;99.90;;;;;;5009062;28;20222;-71
2021/08/02 06:23:44;;;;;;;8.27;2.50;;;15.40;99.90;;;;;;5009648;28;20561;-71
2021/08/02 06:26:12;;;;;;;5.00;2.70;;;15.30;99.90;;;;;;5011224;28;20296;-71
2021/08/02 06:28:39;;;;;;;4.10;2.37;;;15.30;99.90;;;;;;5008630;28;20219;-71
2021/08/02 06:31:05;;;;;;;4.63;2.80;;;15.40;99.90;;;;;;4998647;28;20209;-71
2021/08/02 06:33:32;;;;;;;4.17;2.60;;;15.30;99.90;;;;;;5003698;28;20575;-71
2021/08/02 06:35:59;;;;;;;4.63;2.57;;;15.40;99.90;;;;;;5003260;28;20204;-71
2021/08/02 06:38:31;;;;;;;5.53;2.20;;;15.40;99.90;;;;;;5001415;28;20201;-71
2021/08/02 06:40:58;;;;;;;6.03;2.53;;;15.40;99.90;;;;;;5009325;28;20239;-71
2021/08/02 06:43:26;;;;;;;5.33;2.00;;;15.40;99.90;;;;;;5008663;28;20204;-71
2021/08/02 06:45:53;;;;;;;3.50;2.17;;;15.40;99.90;;;;;;5008870;28;20212;-71
2021/08/02 06:48:20;;;;;;;4.47;2.20;;;15.50;99.90;;;;;;5010556;28;20231;-71
2021/08/02 06:50:47;;;;;;;3.87;2.17;;;15.60;99.90;;;;;;5027363;28;20261;-71
2021/08/02 06:53:14;;;;;;;5.70;2.20;;;15.70;99.90;;;;;;5025880;28;20200;-71
2021/08/02 06:55:41;;;;;;;6.03;2.27;;;15.70;99.90;;;;;;5011162;28;20640;-71
2021/08/02 06:58:08;;;;;;;4.77;2.30;;;15.60;99.90;;;;;;5011197;28;20204;-71
2021/08/02 07:00:36;;;;;;;3.43;1.90;;;15.70;99.90;;;;;;5010253;28;20205;-71
2021/08/02 07:03:03;;;;;;;2.75;1.70;;;15.70;99.90;;;;;;5010243;28;20231;-71
2021/08/02 07:05:30;;;;;;;7.27;2.57;;;15.80;99.90;;;;;;5009065;28;20247;-71
2021/08/02 07:07:57;;;;;;;3.23;1.73;;;15.80;99.90;;;;;;4991664;28;20228;-71
2021/08/02 07:10:24;;;;;;;3.83;1.90;;;15.90;99.90;;;;;;4996096;28;20772;-71
2021/08/02 07:12:50;;;;;;;3.70;2.00;;;16.00;99.90;;;;;;5011249;28;20207;-71
2021/08/02 07:15:17;;;;;;;2.63;1.93;;;16.00;99.90;;;;;;5011334;28;20568;-71
2021/08/02 07:17:45;;;;;;;5.40;1.83;;;16.10;99.90;;;;;;5011024;28;20672;-71
2021/08/02 07:20:13;;;;;;;7.70;2.57;;;16.10;99.90;;;;;;5013678;28;20208;-71
2021/08/02 07:22:40;;;;;;;3.63;1.33;;;16.20;99.90;;;;;;5014691;28;20204;-71
2021/08/02 07:25:08;;;;;;;3.23;1.60;;;16.40;99.90;;;;;;5013977;28;20572;-71
2021/08/02 07:27:35;;;;;;;3.37;1.30;;;16.30;99.90;;;;;;5014570;28;20215;-71
2021/08/02 07:30:02;;;;;;;4.30;1.70;;;16.40;99.90;;;;;;5013387;28;20227;-71
2021/08/02 07:32:28;;;;;;;6.00;1.93;;;16.50;99.90;;;;;;5014927;28;20200;-71
2021/08/02 07:34:57;;;;;;;5.18;1.50;;;16.50;99.90;;;;;;5014385;28;20208;-71
2021/08/02 07:37:23;;;;;;;4.70;1.60;;;16.60;99.90;;;;;;5014865;28;20208;-71
2021/08/02 07:39:50;;;;;;;3.00;1.30;;;16.50;99.90;;;;;;5013670;28;20287;-71
2021/08/02 07:42:17;;;;;;;2.85;1.75;;;16.50;99.90;;;;;;5014685;28;20205;-71
2021/08/02 07:44:44;;;;;;;4.35;1.80;;;16.50;99.90;;;;;;5014034;28;20745;-71
2021/08/02 07:47:11;;;;;;;5.07;2.00;;;16.60;99.90;;;;;;5014611;28;20201;-71
2021/08/02 07:49:37;;;;;;;2.93;1.60;;;16.50;99.90;;;;;;5013478;28;20226;-72
2021/08/02 07:52:07;;;;;;;5.63;2.15;;;16.50;99.90;;;;;;5014363;28;20638;-72
2021/08/02 07:54:33;;;;;;;2.85;1.67;;;16.80;99.90;;;;;;5014228;28;20208;-72
2021/08/02 07:57:00;;;;;;;3.00;1.30;;;16.80;99.90;;;;;;5014103;28;20196;-72
2021/08/02 07:59:28;;;;;;;3.78;1.77;;;16.90;99.90;;;;;;5014299;28;20211;-72
2021/08/02 08:01:55;;;;;;;5.60;1.70;;;17.20;99.90;;;;;;5013575;28;20202;-72
2021/08/02 08:04:22;;;;;;;1.60;1.27;;;17.10;99.90;;;;;;5013335;28;20658;-72
2021/08/02 08:06:48;;;;;;;2.63;1.48;;;17.20;99.90;;;;;;5013738;28;20200;-72
2021/08/02 08:09:17;;;;;;;3.10;1.60;;;17.20;99.90;;;;;;5014271;28;20220;-72
2021/08/02 08:11:44;;;;;;;1.92;1.30;;;17.10;99.90;;;;;;5002613;28;20296;-72
2021/08/02 08:14:10;;;;;;;4.07;1.35;;;17.20;99.90;;;;;;4994244;28;20213;-72
2021/08/02 08:16:38;;;;;;;2.13;1.60;;;17.30;99.90;;;;;;4994421;28;20673;-72
2021/08/02 08:19:05;;;;;;;4.70;1.25;;;17.50;99.90;;;;;;4994744;28;20523;-72
2021/08/02 08:21:35;;;;;;;3.13;1.52;;;17.70;99.90;;;;;;4993931;28;20647;-71
2021/08/02 08:24:03;;;;;;;4.55;1.02;;;17.70;99.90;;;;;;4994367;28;20205;-71
2021/08/02 08:26:34;;;;;;;4.35;1.42;;;18.20;99.90;;;;;;4994177;28;20554;-72
2021/08/02 08:29:01;;;;;;;2.53;1.50;;;18.00;99.90;;;;;;4994617;28;20247;-71
2021/08/02 08:31:28;;;;;;;2.08;1.52;;;17.70;99.90;;;;;;4992826;28;20311;-71
2021/08/02 08:33:55;;;;;;;2.88;1.75;;;17.90;99.90;;;;;;5002263;28;20204;-71
2021/08/02 08:36:22;;;;;;;4.57;1.35;;;17.80;99.90;;;;;;5010636;28;20236;-72
2021/08/02 08:38:49;;;;;;;4.53;1.50;;;18.00;99.90;;;;;;5018246;28;20211;-72
2021/08/02 08:41:18;;;;;;;4.03;1.40;;;17.90;99.90;;;;;;5023284;28;20645;-72
2021/08/02 08:43:49;;;;;;;5.13;1.70;;;18.10;99.90;;;;;;5014708;28;20573;-72
2021/08/02 08:46:18;;;;;;;5.78;1.30;;;18.00;99.90;;;;;;5031023;28;20286;-71
2021/08/02 08:48:44;;;;;;;2.75;1.70;;;18.00;99.90;;;;;;5009478;28;20258;-71
2021/08/02 08:51:13;;;;;;;2.70;1.05;;;18.10;99.90;;;;;;5009299;28;20220;-72
2021/08/02 08:53:42;;;;;;;2.05;1.30;;;18.10;99.90;;;;;;5008178;28;20215;-71
2021/08/02 08:56:09;;;;;;;2.38;1.40;;;18.20;99.90;;;;;;5008500;28;20679;-71
2021/08/02 08:58:36;;;;;;;2.17;1.27;;;18.50;99.90;;;;;;5008965;28;20685;-72
2021/08/02 09:01:06;;;;;;;2.78;1.10;;;18.60;99.90;;;;;;5008225;28;20200;-71
2021/08/02 09:03:33;;;;;;;1.40;1.30;;;18.60;99.90;;;;;;5006506;28;20208;-72
2021/08/02 09:06:04;;;;;;;3.05;1.30;;;19.00;99.90;;;;;;5003464;28;20220;-72
2021/08/02 09:08:31;;;;;;;2.70;1.40;;;19.30;99.90;;;;;;5008806;28;20239;-72
2021/08/02 09:11:00;;;;;;;1.92;1.10;;;19.50;99.90;;;;;;5006381;28;20307;-72
2021/08/02 09:13:30;;;;;;;4.38;1.45;;;20.40;99.90;;;;;;5008377;28;20290;-72
2021/08/02 09:15:58;;;;;;;2.95;1.05;;;20.20;99.90;;;;;;5008264;28;20584;-71
2021/08/02 09:18:26;;;;;;;1.98;1.33;;;20.10;99.90;;;;;;5009034;28;20208;-72
2021/08/02 09:21:00;;;;;;;3.47;1.40;;;19.90;99.90;;;;;;5005919;28;20212;-71
2021/08/02 09:23:27;;;;;;;1.52;0.90;;;19.50;99.90;;;;;;5007421;28;20729;-72
2021/08/02 09:25:59;;;;;;;3.45;1.17;;;19.50;99.90;;;;;;5008110;28;20208;-72
2021/08/02 09:28:26;;;;;;;1.45;1.10;;;19.10;99.90;;;;;;5008752;28;20224;-72
2021/08/02 09:30:55;;;;;;;3.47;0.98;;;18.80;99.90;;;;;;5004908;28;20204;-72
2021/08/02 09:33:23;;;;;;;1.75;1.13;;;18.50;99.90;;;;;;5005300;28;20563;-72
2021/08/02 09:35:52;;;;;;;1.85;0.93;;;18.30;99.90;;;;;;5008446;28;20204;-71
2021/08/02 09:38:22;;;;;;;2.00;1.20;;;18.30;99.90;;;;;;5006990;28;20204;-75
2021/08/02 09:40:51;;;;;;;3.67;1.20;;;18.20;99.90;;;;;;5006740;28;20204;-75
2021/08/02 09:43:20;;;;;;;1.25;0.80;;;18.30;99.90;;;;;;5007680;28;20220;-75
2021/08/02 09:45:49;;;;;;;2.08;1.15;;;18.40;99.90;;;;;;5008087;28;20266;-75
2021/08/02 09:48:18;;;;;;;3.53;1.10;;;18.50;99.90;;;;;;5007219;28;20654;-75
2021/08/02 09:50:45;;;;;;;1.45;1.13;;;18.60;99.90;;;;;;5007906;28;20221;-75
2021/08/02 09:53:15;;;;;;;2.75;1.70;;;18.50;99.90;;;;;;5007785;28;20204;-75
2021/08/02 09:55:44;;;;;;;2.45;1.35;;;18.60;99.90;;;;;;5007591;28;20212;-75
2021/08/02 09:58:14;;;;;;;2.00;1.15;;;18.80;99.90;;;;;;5007454;28;20204;-75
2021/08/02 10:00:42;;;;;;;3.72;1.27;;;18.80;99.90;;;;;;5007642;28;20786;-75
2021/08/02 10:03:09;;;;;;;1.17;1.08;;;19.00;99.90;;;;;;5007312;28;20216;-75
2021/08/02 10:05:38;;;;;;;2.08;0.95;;;19.20;99.90;;;;;;5006027;28;20200;-75
2021/08/02 10:08:06;;;;;;;1.25;1.15;;;19.20;99.90;;;;;;5005804;28;20215;-75
2021/08/02 10:10:37;;;;;;;2.22;1.50;;;19.40;99.90;;;;;;5007231;28;20219;-75
2021/08/02 10:13:04;;;;;;;3.88;1.40;;;19.10;99.90;;;;;;5004594;28;20212;-75
2021/08/02 10:15:32;;;;;;;3.20;1.23;;;18.70;99.90;;;;;;5006951;28;20298;-75
2021/08/02 10:18:02;;;;;;;3.75;1.27;;;18.50;99.90;;;;;;5007830;28;20415;-75
2021/08/02 10:20:31;;;;;;;4.20;1.40;;;18.60;99.90;;;;;;5006893;28;20304;-75
2021/08/02 10:22:59;;;;;;;3.58;1.50;;;18.80;99.90;;;;;;5007585;28;20209;-75
2021/08/02 10:25:35;;;;;;;2.40;1.33;;;19.00;99.90;;;;;;4999791;28;20205;-75
2021/08/02 10:28:10;;;;;;;2.90;1.27;;;19.10;99.90;;;;;;4995180;28;20219;-75
2021/08/02 10:30:38;;;;;;;2.03;1.33;;;19.70;99.90;;;;;;5001204;28;20694;-75
2021/08/02 10:33:05;;;;;;;3.53;1.27;;;19.70;99.90;;;;;;5003199;28;20583;-75
2021/08/02 10:35:37;;;;;;;3.20;1.25;;;19.90;99.90;;;;;;5000710;28;20592;-75
2021/08/02 10:38:06;;;;;;;3.65;1.30;;;20.40;99.90;;;;;;5004652;28;20207;-75
2021/08/02 10:40:53;;;;;;;2.25;1.27;;;20.60;99.90;;;;;;5005956;28;20208;-75
2021/08/02 10:43:37;;;;;;;3.17;1.40;;;20.60;99.90;;;;;;5006924;28;20279;-75
2021/08/02 10:46:17;;;;;;;4.15;1.55;;;20.90;99.90;;;;;;5006157;28;20215;-75
2021/08/02 10:48:45;;;;;;;3.40;1.60;;;21.00;99.90;;;;;;5007385;28;20270;-75
2021/08/02 10:51:14;;;;;;;2.15;1.52;;;20.80;99.90;;;;;;5006869;28;20220;-75
2021/08/02 10:53:41;;;;;;;2.38;1.67;;;20.80;99.90;;;;;;5007537;28;20216;-75
2021/08/02 10:56:10;;;;;;;2.08;1.30;;;21.50;99.90;;;;;;5010709;28;20200;-75
2021/08/02 10:58:39;;;;;;;2.42;1.25;;;21.90;99.90;;;;;;5011251;28;20215;-75
2021/08/02 11:01:12;;;;;;;2.75;1.13;;;21.90;99.90;;;;;;5009947;28;20254;-75
2021/08/02 11:03:40;;;;;;;2.72;1.27;;;22.10;99.90;;;;;;5010985;28;20661;-75
2021/08/02 11:06:09;;;;;;;4.93;1.52;;;22.10;99.90;;;;;;5010265;28;20216;-75
2021/08/02 11:08:47;;;;;;;2.17;1.20;;;22.60;99.90;;;;;;5011864;28;20666;-75
2021/08/02 11:11:24;;;;;;;3.78;1.50;;;22.90;99.90;;;;;;5010540;28;20595;-75
2021/08/02 11:13:52;;;;;;;4.13;1.20;;;21.80;99.90;;;;;;5011173;28;20609;-75
2021/08/02 11:16:20;;;;;;;3.17;1.00;;;21.50;99.90;;;;;;5010527;28;20212;-75
2021/08/02 11:18:47;;;;;;;1.48;1.38;;;21.50;99.90;;;;;;5010732;28;20216;-75
2021/08/02 11:21:22;;;;;;;1.90;1.17;;;21.20;99.90;;;;;;5010958;28;20496;-75
2021/08/02 11:23:49;;;;;;;2.22;1.40;;;21.30;99.90;;;;;;5010429;28;20346;-75
2021/08/02 11:26:16;;;;;;;2.10;1.42;;;21.30;99.90;;;;;;5010058;28;20209;-75
2021/08/02 11:28:48;;;;;;;2.10;1.17;;;22.20;99.90;;;;;;5011303;28;20737;-75
2021/08/02 11:31:15;;;;;;;2.60;1.30;;;22.30;99.90;;;;;;5009218;28;20536;-75
2021/08/02 11:33:44;;;;;;;1.17;0.90;;;22.70;99.90;;;;;;5005790;28;20655;-75
2021/08/02 11:36:17;;;;;;;2.38;1.20;;;22.00;99.90;;;;;;4995236;28;20205;-75
2021/08/02 11:38:45;;;;;;;2.53;1.20;;;21.60;99.90;;;;;;5000542;28;20216;-75
2021/08/02 11:41:12;;;;;;;1.08;0.70;;;21.90;99.90;;;;;;5008336;28;20583;-75
2021/08/02 11:43:44;;;;;;;4.15;1.48;;;21.80;99.90;;;;;;5010114;28;20612;-75
2021/08/02 11:46:13;;;;;;;2.45;1.15;;;21.60;99.90;;;;;;5010315;28;20204;-75
2021/08/02 11:48:43;;;;;;;2.45;1.20;;;21.50;99.90;;;;;;5019427;28;20227;-75
2021/08/02 11:51:12;;;;;;;2.88;1.17;;;21.30;99.90;;;;;;5009410;28;20323;-75
2021/08/02 11:53:39;;;;;;;1.92;1.00;;;21.00;99.90;;;;;;5028856;28;20200;-73
2021/08/02 11:56:06;;;;;;;2.88;1.38;;;21.20;99.90;;;;;;5021163;28;20857;-73
2021/08/02 11:58:54;;;;;;;2.80;1.30;;;21.60;99.90;;;;;;5010593;28;20659;-74
2021/08/02 12:01:21;;;;;;;3.05;1.63;;;22.30;99.90;;;;;;5014695;28;20223;-74
2021/08/02 12:03:48;;;;;;;1.77;0.90;;;22.80;99.90;;;;;;5010032;28;20214;-74
2021/08/02 12:06:15;;;;;;;2.58;1.20;;;23.20;99.90;;;;;;4991877;28;20220;-74
2021/08/02 12:08:52;;;;;;;4.03;2.72;;;23.30;99.90;;;;;;5010695;28;20212;-74
2021/08/02 12:11:20;;;;;;;4.03;1.40;;;22.50;99.90;;;;;;5009595;28;20232;-74
2021/08/02 12:13:49;;;;;;;2.22;1.17;;;22.70;99.90;;;;;;5009675;28;20208;-74
2021/08/02 12:16:28;;;;;;;3.58;1.42;;;22.60;99.90;;;;;;5016519;28;20208;-74
2021/08/02 12:19:06;;;;;;;2.55;1.00;;;22.50;99.90;;;;;;5018218;28;20215;-74
2021/08/02 12:21:33;;;;;;;2.25;1.30;;;22.40;99.90;;;;;;5009446;28;20219;-74
2021/08/02 12:24:05;;;;;;;1.58;1.23;;;22.40;99.90;;;;;;5009760;28;20678;-74
2021/08/02 12:26:32;;;;;;;0.95;0.95;;;21.70;99.90;;;;;;5012044;28;20682;-74
2021/08/02 12:29:00;;;;;;;2.20;1.02;;;21.50;99.90;;;;;;5005944;28;20212;-74
2021/08/02 12:31:27;;;;;;;0.90;0.90;;;21.50;99.90;;;;;;5008508;28;20225;-73
2021/08/02 12:33:54;;;;;;;3.33;2.05;;;21.30;99.90;;;;;;5022062;28;20723;-73
2021/08/02 12:36:22;;;;;;;4.63;1.42;;;21.40;99.90;;;;;;5028378;28;20211;-73
2021/08/02 12:38:51;;;;;;;3.15;1.20;;;21.30;99.90;;;;;;5018729;28;20208;-73
2021/08/02 12:41:18;;;;;;;2.88;1.27;;;21.30;99.90;;;;;;5009683;28;20205;-73
2021/08/02 12:43:45;;;;;;;2.13;1.42;;;21.50;99.90;;;;;;5008687;28;20208;-73
2021/08/02 12:46:14;;;;;;;1.02;0.85;;;21.50;99.90;;;;;;5009176;28;20560;-77
2021/08/02 12:48:41;;;;;;;4.00;1.35;;;21.30;99.90;;;;;;5009489;28;20212;-74
2021/08/02 12:51:09;;;;;;;1.10;1.10;;;21.40;99.90;;;;;;5032980;22;20223;-73
2021/08/02 12:53:36;;;;;;;1.60;1.05;;;21.50;99.90;;;;;;5021615;28;20220;-73
2021/08/02 12:56:03;;;;;;;1.30;1.05;;;21.50;99.90;;;;;;5008460;28;20613;-72